Childs, MD (21916)

5:34 PM EST on January 26, 2015 (GMT -0500)
Childs/Elkton | Change Station
CLOSE
Current Station
Personal Weather Station
Location: Elkton, MD
Elevation: 220 ft
Nearby Weather Stations
Active Advisory: Winter Weather Advisory Active Notice: Public Information Statement

Elev 220 ft 39.65 °N, 75.89 °W | Updated 2 seconds ago

Snow
Snow
27.8 °F
Feels Like 28 °F
N
2.0
Wind Variable Wind from NNE
Gusts 6.0 mph

Today
High -- | Low -- °F
--% Chance of Precip.
Yesterday
High -- | Low -- °F
Precip. -- in
7:16 AM 5:16 PM
Waxing Crescent, 47% visible
Pressure 29.76 in
Visibility 10.0 miles
Clouds Overcast 1800 ft
Windchill 28 °F
Dew Point 24 °F
Humidity 86%
Rainfall 0.00 in
Snow Depth Not available.
UV 0 out of 12
Pollen .10 out of 12
Air Quality Not available.
Flu Activity Not available.
METAR KILG 262151Z 03018KT 10SM OVC018 M02/M06 A2976 RMK AO2 PK WND 04028/2120 UPB16E37SNE16 SLP078 P0001 T10221061

More Conditions Fewer Conditions

Pressure 29.76 in
Visibility 10.0 miles
Clouds Overcast 1800 ft
Windchill 28 °F
Dew Point 24 °F
Humidity 86%
Rainfall 0.00 in
Snow Depth Not available.
UV 0 out of 12
Pollen .10 out of 12
Air Quality Not available.
Flu Activity Not available.
METAR KILG 262151Z 03018KT 10SM OVC018 M02/M06 A2976 RMK AO2 PK WND 04028/2120 UPB16E37SNE16 SLP078 P0001 T10221061

More Conditions Fewer Conditions

10-Day Weather Forecast

Almanac

Astronomy

Jan. 26, 2015 Rise Set
Actual Time
Civil Twilight
Nautical Twilight
Astronomical Twilight
Moon
Length of Visible Light
Length of Day
Tomorrow will be .
, % of the Moon is Illuminated

Today's Extremes

State Highs State Lows

Community

WunderPhotos

Upload Photos

1,790,385 photos uploaded!

WunderBlogs® & News

Nearby

Air Quality

  Air Quality AQ Index Pollutant
Not available.

Snow Depth

Station Depth Elevation

Earthquake Activity

City Distance Mag. Time & Date
Minimum magnitude displayed is 2.5.

Coastal Water Temperatures

Place Temperature

Nearby Weather Stations